createdAt,value
2023-04-06T00:00:16.939Z,3.55
2023-04-06T00:01:19.513Z,3.88
2023-04-06T00:02:22.289Z,4.20
2023-04-06T00:03:24.984Z,4.25
2023-04-06T00:04:27.709Z,3.78
2023-04-06T00:05:31.742Z,3.42
2023-04-06T00:06:34.815Z,4.03
2023-04-06T00:07:37.464Z,3.60
2023-04-06T00:08:40.321Z,3.42
2023-04-06T00:09:42.946Z,3.55
2023-04-06T00:10:45.699Z,3.08
2023-04-06T00:11:48.252Z,4.07
2023-04-06T00:12:50.934Z,2.85
2023-04-06T00:13:53.767Z,3.08
2023-04-06T00:14:56.337Z,3.88
2023-04-06T00:15:59.651Z,5.03
2023-04-06T00:17:02.617Z,4.40
2023-04-06T00:18:05.221Z,3.83
2023-04-06T00:19:08.122Z,4.10
2023-04-06T00:20:11.273Z,3.58
2023-04-06T00:21:14.405Z,4.07
2023-04-06T00:22:16.909Z,3.60
2023-04-06T00:23:19.572Z,3.67
2023-04-06T00:24:22.146Z,4.47
2023-04-06T00:25:24.754Z,3.80
2023-04-06T00:26:27.352Z,3.63
2023-04-06T00:27:31.480Z,3.53
2023-04-06T00:28:34.012Z,3.58
2023-04-06T00:29:36.559Z,4.03
2023-04-06T00:30:39.110Z,4.00
2023-04-06T00:31:41.759Z,3.47
2023-04-06T00:32:44.380Z,3.40
2023-04-06T00:33:47.102Z,3.38
2023-04-06T00:34:49.613Z,3.47
2023-04-06T00:35:52.414Z,3.17
2023-04-06T00:36:54.910Z,3.78
2023-04-06T00:37:57.573Z,3.45
2023-04-06T00:39:00.124Z,3.30
2023-04-06T00:40:03.385Z,3.38
2023-04-06T00:41:06.290Z,2.95
2023-04-06T00:42:15.559Z,3.10
2023-04-06T00:43:18.139Z,3.25
2023-04-06T00:44:21.731Z,3.53
2023-04-06T00:45:24.415Z,3.45
2023-04-06T00:46:27.259Z,3.30
2023-04-06T00:47:30.277Z,3.22
2023-04-06T00:48:33.884Z,3.38
2023-04-06T00:49:36.651Z,3.15
2023-04-06T00:50:39.210Z,3.08
2023-04-06T00:51:41.838Z,3.38
2023-04-06T00:52:44.422Z,2.70
2023-04-06T00:53:47.224Z,3.10
2023-04-06T00:54:50.998Z,3.58
2023-04-06T00:55:55.580Z,3.20
2023-04-06T00:56:59.018Z,3.33
2023-04-06T00:58:03.627Z,3.65
2023-04-06T00:59:12.300Z,2.90
2023-04-06T01:00:15.582Z,3.17
2023-04-06T01:01:20.633Z,3.28
2023-04-06T01:02:26.729Z,3.42
2023-04-06T01:03:30.171Z,3.13
2023-04-06T01:04:33.525Z,3.10
2023-04-06T01:05:41.299Z,3.58
2023-04-06T01:06:50.663Z,3.58
2023-04-06T01:07:53.296Z,3.50
2023-04-06T01:08:59.457Z,3.45
2023-04-06T01:10:03.969Z,3.45
2023-04-06T01:11:08.234Z,3.75
2023-04-06T01:12:10.776Z,3.13
2023-04-06T01:13:13.497Z,3.92
2023-04-06T01:14:36.987Z,3.40
2023-04-06T01:15:40.384Z,5.00
2023-04-06T01:16:44.700Z,4.45
2023-04-06T01:17:53.316Z,4.30
2023-04-06T01:18:55.905Z,4.18
2023-04-06T01:20:03.625Z,4.53
2023-04-06T01:21:09.739Z,4.57
2023-04-06T01:22:17.229Z,4.57
2023-04-06T01:23:26.775Z,4.13
2023-04-06T01:24:29.693Z,4.20
2023-04-06T01:25:44.307Z,4.57
2023-04-06T01:26:46.902Z,4.32
2023-04-06T01:27:49.522Z,4.20
2023-04-06T01:28:58.517Z,4.38
2023-04-06T01:30:06.509Z,4.15
2023-04-06T01:31:23.221Z,4.40
2023-04-06T01:32:28.094Z,4.28
2023-04-06T01:33:30.718Z,3.80
2023-04-06T01:34:39.909Z,4.65
2023-04-06T01:35:42.833Z,4.75
2023-04-06T01:36:56.352Z,4.25
2023-04-06T01:38:05.737Z,4.53
2023-04-06T01:39:11.477Z,4.82
2023-04-06T01:40:16.344Z,5.20
2023-04-06T01:41:25.560Z,4.78
2023-04-06T01:42:29.547Z,4.28
2023-04-06T01:43:32.686Z,5.13
2023-04-06T01:44:44.472Z,5.13
2023-04-06T01:45:50.644Z,4.70
2023-04-06T01:46:57.759Z,4.95
2023-04-06T01:48:00.845Z,4.28
2023-04-06T01:49:04.583Z,4.72
2023-04-06T01:50:15.971Z,4.30
2023-04-06T01:51:21.915Z,4.50
2023-04-06T01:52:30.642Z,4.75
2023-04-06T01:53:33.597Z,4.85
2023-04-06T01:54:40.992Z,5.30
2023-04-06T01:55:51.972Z,5.00
2023-04-06T01:57:01.788Z,5.43
2023-04-06T01:58:30.349Z,5.03
2023-04-06T01:59:33.132Z,5.45
2023-04-06T02:00:40.069Z,5.78
2023-04-06T02:01:42.853Z,5.53
2023-04-06T02:02:45.601Z,5.72
2023-04-06T02:03:55.037Z,6.00
2023-04-06T02:04:57.974Z,5.68
2023-04-06T02:06:01.218Z,5.40
2023-04-06T02:07:09.441Z,5.90
2023-04-06T02:08:12.010Z,6.30
2023-04-06T02:09:15.669Z,6.22
2023-04-06T02:10:18.764Z,6.13
2023-04-06T02:11:21.494Z,6.35
2023-04-06T02:12:26.986Z,5.95
2023-04-06T02:13:30.714Z,5.88
2023-04-06T02:14:34.204Z,5.95
2023-04-06T02:15:37.057Z,6.57
2023-04-06T02:16:39.726Z,6.68
2023-04-06T02:17:43.073Z,6.97
2023-04-06T02:18:46.277Z,6.00
2023-04-06T02:19:48.852Z,6.05
2023-04-06T02:20:52.060Z,6.45
2023-04-06T02:21:55.069Z,6.47
2023-04-06T02:22:59.898Z,6.88
2023-04-06T02:24:02.436Z,5.43
2023-04-06T02:25:06.094Z,6.07
2023-04-06T02:26:09.417Z,6.95
2023-04-06T02:27:11.909Z,6.40
2023-04-06T02:28:14.659Z,6.57
2023-04-06T02:29:17.265Z,6.10
2023-04-06T02:30:19.997Z,6.10
2023-04-06T02:31:22.701Z,7.32
2023-04-06T02:32:26.069Z,6.05
2023-04-06T02:33:29.661Z,6.47
2023-04-06T02:34:32.376Z,5.88
2023-04-06T02:35:36.146Z,6.95
2023-04-06T02:36:38.899Z,6.30
2023-04-06T02:37:41.536Z,6.72
2023-04-06T02:38:44.860Z,7.05
2023-04-06T02:39:47.989Z,7.15
2023-04-06T02:40:50.772Z,6.20
2023-04-06T02:42:01.516Z,5.85
2023-04-06T02:43:04.330Z,5.97
2023-04-06T02:44:09.918Z,6.78
2023-04-06T02:45:19.777Z,5.95
2023-04-06T02:46:23.864Z,5.85
2023-04-06T02:47:27.124Z,6.95
2023-04-06T02:48:30.042Z,6.07
2023-04-06T02:49:32.796Z,5.78
2023-04-06T02:50:35.645Z,6.45
2023-04-06T02:51:41.943Z,6.57
2023-04-06T02:52:58.331Z,6.35
2023-04-06T02:54:01.168Z,6.05
2023-04-06T02:55:04.008Z,6.95
2023-04-06T02:56:07.618Z,6.80
2023-04-06T02:57:28.203Z,6.88
2023-04-06T02:58:31.104Z,6.00
2023-04-06T02:59:34.481Z,7.10
2023-04-06T03:00:47.061Z,6.95
2023-04-06T03:01:49.860Z,6.22
2023-04-06T03:02:52.638Z,6.80
2023-04-06T03:03:55.611Z,6.90
2023-04-06T03:05:02.461Z,6.60
2023-04-06T03:06:10.129Z,6.15
2023-04-06T03:07:13.002Z,6.00
2023-04-06T03:08:15.774Z,6.38
2023-04-06T03:09:21.859Z,7.22
2023-04-06T03:10:24.408Z,6.93
2023-04-06T03:11:27.877Z,6.80
2023-04-06T03:12:30.622Z,6.72
2023-04-06T03:13:53.687Z,6.68
2023-04-06T03:14:56.697Z,7.15
2023-04-06T03:15:59.509Z,8.05
2023-04-06T03:17:03.401Z,6.57
2023-04-06T03:18:06.175Z,7.22
2023-04-06T03:19:21.829Z,6.55
2023-04-06T03:20:24.790Z,6.88
2023-04-06T03:21:27.348Z,6.72
2023-04-06T03:22:30.357Z,7.15
2023-04-06T03:23:33.038Z,7.38
2023-04-06T03:24:37.609Z,6.10
2023-04-06T03:25:41.396Z,7.40
2023-04-06T03:26:46.354Z,6.47
2023-04-06T03:27:48.916Z,7.25
2023-04-06T03:28:54.732Z,7.63
2023-04-06T03:30:03.004Z,6.45
2023-04-06T03:31:10.002Z,7.60
2023-04-06T03:32:45.535Z,7.40
2023-04-06T03:33:48.142Z,6.50
2023-04-06T03:34:57.627Z,6.72
2023-04-06T03:36:01.071Z,6.90
2023-04-06T03:37:10.313Z,7.05
2023-04-06T03:38:18.929Z,6.90
2023-04-06T03:39:21.689Z,7.38
2023-04-06T03:40:24.358Z,6.45
2023-04-06T03:41:27.381Z,7.65
2023-04-06T03:42:38.483Z,7.07
2023-04-06T03:43:46.858Z,7.30
2023-04-06T03:44:49.450Z,7.32
2023-04-06T03:45:52.525Z,7.00
2023-04-06T03:46:56.262Z,7.75
2023-04-06T03:47:59.011Z,8.18
2023-04-06T03:49:01.822Z,6.97
2023-04-06T03:50:05.364Z,7.53
2023-04-06T03:51:10.704Z,7.50
2023-04-06T03:52:13.180Z,7.45
2023-04-06T03:53:15.874Z,6.97
2023-04-06T03:54:18.469Z,6.63
2023-04-06T03:55:21.235Z,6.57
2023-04-06T03:56:23.704Z,6.55
2023-04-06T03:57:26.349Z,6.88
2023-04-06T03:58:28.852Z,6.30
2023-04-06T03:59:31.525Z,7.10
2023-04-06T04:00:34.232Z,7.68
2023-04-06T04:01:36.802Z,7.28
2023-04-06T04:02:39.846Z,6.85
2023-04-06T04:03:42.477Z,7.03
2023-04-06T04:04:45.098Z,7.28
2023-04-06T04:05:47.703Z,6.75
2023-04-06T04:06:50.322Z,6.80
2023-04-06T04:07:53.448Z,6.18
2023-04-06T04:08:59.370Z,7.57
2023-04-06T04:10:02.105Z,6.25
2023-04-06T04:11:05.884Z,6.82
2023-04-06T04:12:08.580Z,6.57
2023-04-06T04:13:11.614Z,7.13
2023-04-06T04:14:14.306Z,7.10
2023-04-06T04:15:16.909Z,7.25
2023-04-06T04:16:19.567Z,7.95
2023-04-06T04:17:22.969Z,7.03
2023-04-06T04:18:25.855Z,6.93
2023-04-06T04:19:28.447Z,7.35
2023-04-06T04:20:32.290Z,6.38
2023-04-06T04:21:35.061Z,7.20
2023-04-06T04:22:44.164Z,7.72
2023-04-06T04:23:47.100Z,6.60
2023-04-06T04:24:49.608Z,6.32
2023-04-06T04:25:52.538Z,6.45
2023-04-06T04:26:55.181Z,6.20
2023-04-06T04:27:57.935Z,6.22
2023-04-06T04:29:00.722Z,6.75
2023-04-06T04:30:03.562Z,6.43
2023-04-06T04:31:06.343Z,6.10
2023-04-06T04:32:10.928Z,7.78
2023-04-06T04:33:13.825Z,5.97
2023-04-06T04:34:17.870Z,6.60
2023-04-06T04:35:20.851Z,6.70
2023-04-06T04:36:24.250Z,6.32
2023-04-06T04:37:26.909Z,6.70
2023-04-06T04:38:31.935Z,6.53
2023-04-06T04:39:34.534Z,6.43
2023-04-06T04:40:40.621Z,5.90
2023-04-06T04:41:45.321Z,6.03
2023-04-06T04:42:49.879Z,6.70
2023-04-06T04:43:59.060Z,7.00
2023-04-06T04:45:02.918Z,6.20
2023-04-06T04:46:15.912Z,6.65
2023-04-06T04:47:20.059Z,5.82
2023-04-06T04:48:24.020Z,5.95
2023-04-06T04:49:34.430Z,6.28
2023-04-06T04:50:37.086Z,5.80
2023-04-06T04:51:39.779Z,6.95
2023-04-06T04:53:02.690Z,5.95
2023-04-06T04:54:05.321Z,6.47
2023-04-06T04:55:08.960Z,6.00
2023-04-06T04:56:11.844Z,5.95
2023-04-06T04:57:14.462Z,5.47
2023-04-06T04:58:20.760Z,5.63
2023-04-06T04:59:31.311Z,5.97
2023-04-06T05:00:44.569Z,5.07
2023-04-06T05:01:55.017Z,6.00
2023-04-06T05:03:05.061Z,5.68
2023-04-06T05:04:11.576Z,5.85
2023-04-06T05:05:14.691Z,4.95
2023-04-06T05:06:17.755Z,5.80
2023-04-06T05:07:21.840Z,5.72
2023-04-06T05:08:26.084Z,5.03
2023-04-06T05:09:31.615Z,6.20
2023-04-06T05:10:36.412Z,5.45
2023-04-06T05:11:39.780Z,5.38
2023-04-06T05:12:42.399Z,5.13
2023-04-06T05:13:47.110Z,4.38
2023-04-06T05:14:55.158Z,5.55
2023-04-06T05:15:59.223Z,6.07
2023-04-06T05:17:05.804Z,4.95
2023-04-06T05:18:09.240Z,5.00
2023-04-06T05:19:12.565Z,4.97
2023-04-06T05:20:19.707Z,5.22
2023-04-06T05:21:27.439Z,5.05
2023-04-06T05:22:37.255Z,4.20
2023-04-06T05:23:43.980Z,5.10
2023-04-06T05:24:47.462Z,4.40
2023-04-06T05:25:50.483Z,5.07
2023-04-06T05:26:57.119Z,4.97
2023-04-06T05:28:00.896Z,4.82
2023-04-06T05:29:07.675Z,3.95
2023-04-06T05:30:13.159Z,5.22
2023-04-06T05:31:20.587Z,4.72
2023-04-06T05:32:26.663Z,5.63
2023-04-06T05:33:30.027Z,4.38
2023-04-06T05:34:38.680Z,5.10
2023-04-06T05:35:41.347Z,4.85
2023-04-06T05:36:48.388Z,5.30
2023-04-06T05:37:54.849Z,4.57
2023-04-06T05:39:00.486Z,3.92
2023-04-06T05:40:17.351Z,4.22
2023-04-06T05:41:21.535Z,4.40
2023-04-06T05:42:24.287Z,5.35
2023-04-06T05:43:29.999Z,4.30
2023-04-06T05:44:34.320Z,4.78
2023-04-06T05:45:47.433Z,5.05
2023-04-06T05:46:50.075Z,4.47
2023-04-06T05:47:53.391Z,5.05
2023-04-06T05:49:00.702Z,4.00
2023-04-06T05:50:07.250Z,5.30
2023-04-06T05:51:13.220Z,4.45
2023-04-06T05:52:21.289Z,4.03
2023-04-06T05:53:27.482Z,4.10
2023-04-06T05:54:33.463Z,4.35
2023-04-06T05:55:38.029Z,4.18
2023-04-06T05:56:51.901Z,4.35
2023-04-06T05:57:54.471Z,4.53
2023-04-06T05:58:57.858Z,4.30
2023-04-06T06:00:07.570Z,4.35
2023-04-06T06:01:21.119Z,5.13
2023-04-06T06:02:23.959Z,4.43
2023-04-06T06:03:28.583Z,4.85
2023-04-06T06:04:33.334Z,4.78
2023-04-06T06:05:36.344Z,4.20
2023-04-06T06:06:45.325Z,4.65
2023-04-06T06:07:53.291Z,3.97
2023-04-06T06:09:00.132Z,4.28
2023-04-06T06:10:02.767Z,4.40
2023-04-06T06:11:09.168Z,4.45
2023-04-06T06:12:14.036Z,4.65
2023-04-06T06:13:17.566Z,4.57
2023-04-06T06:14:20.156Z,4.78
2023-04-06T06:15:22.681Z,4.55
2023-04-06T06:16:25.378Z,4.97
2023-04-06T06:17:28.173Z,3.80
2023-04-06T06:18:32.596Z,4.57
2023-04-06T06:19:35.871Z,3.67
2023-04-06T06:20:41.684Z,4.13
2023-04-06T06:21:44.387Z,4.68
2023-04-06T06:22:47.128Z,4.20
2023-04-06T06:23:55.040Z,3.80
2023-04-06T06:24:58.254Z,3.25
2023-04-06T06:26:02.000Z,3.88
2023-04-06T06:27:05.672Z,3.72
2023-04-06T06:28:10.329Z,3.83
2023-04-06T06:29:13.020Z,3.60
2023-04-06T06:30:16.219Z,3.47
2023-04-06T06:31:23.551Z,3.70
2023-04-06T06:32:26.356Z,4.47
2023-04-06T06:33:30.193Z,4.55
2023-04-06T06:34:34.252Z,3.15
2023-04-06T06:35:39.881Z,3.20
2023-04-06T06:36:42.497Z,3.70
2023-04-06T06:37:47.403Z,3.63
2023-04-06T06:38:53.364Z,3.55
2023-04-06T06:39:57.224Z,3.22
2023-04-06T06:40:59.982Z,3.65
2023-04-06T06:42:06.359Z,4.22
2023-04-06T06:43:36.213Z,2.75
2023-04-06T06:44:43.278Z,2.85
2023-04-06T06:45:45.962Z,2.50
2023-04-06T06:46:49.777Z,3.20
2023-04-06T06:47:54.870Z,3.30
2023-04-06T06:48:59.444Z,3.28
2023-04-06T06:50:03.936Z,3.13
2023-04-06T06:51:06.612Z,3.92
2023-04-06T06:52:09.247Z,2.97
2023-04-06T06:53:12.708Z,3.45
2023-04-06T06:54:15.377Z,3.25
2023-04-06T06:55:20.191Z,3.08
2023-04-06T06:56:23.022Z,3.20
2023-04-06T06:57:27.591Z,2.65
2023-04-06T06:58:30.280Z,2.65
2023-04-06T06:59:33.172Z,2.78
2023-04-06T07:00:36.383Z,2.90
2023-04-06T07:01:39.488Z,2.17
2023-04-06T07:02:42.497Z,3.25
2023-04-06T07:03:45.432Z,2.85
2023-04-06T07:04:51.317Z,2.85
2023-04-06T07:05:54.375Z,2.70
2023-04-06T07:06:59.626Z,3.20
2023-04-06T07:08:02.250Z,2.83
2023-04-06T07:09:04.901Z,2.60
2023-04-06T07:10:08.972Z,2.35
2023-04-06T07:11:14.261Z,3.00
2023-04-06T07:12:17.576Z,2.50
2023-04-06T07:13:24.387Z,2.70
2023-04-06T07:14:29.539Z,2.55
2023-04-06T07:15:32.082Z,2.53
2023-04-06T07:16:34.723Z,2.85
2023-04-06T07:17:37.403Z,2.63
2023-04-06T07:18:39.971Z,2.75
2023-04-06T07:19:42.621Z,2.22
2023-04-06T07:20:45.405Z,2.60
2023-04-06T07:21:50.174Z,2.35
2023-04-06T07:22:52.868Z,2.28
2023-04-06T07:23:55.613Z,2.20
2023-04-06T07:24:59.022Z,2.45
2023-04-06T07:26:02.767Z,2.78
2023-04-06T07:27:06.342Z,2.80
2023-04-06T07:28:08.873Z,2.92
2023-04-06T07:29:11.800Z,2.78
2023-04-06T07:30:14.605Z,2.85
2023-04-06T07:31:17.175Z,2.95
2023-04-06T07:32:20.325Z,2.90
2023-04-06T07:33:23.469Z,2.50
2023-04-06T07:34:27.027Z,2.70
2023-04-06T07:35:31.339Z,2.50
2023-04-06T07:36:34.245Z,2.15
2023-04-06T07:37:36.921Z,2.20
2023-04-06T07:38:39.577Z,3.00
2023-04-06T07:39:42.599Z,2.13
2023-04-06T07:40:45.909Z,2.60
2023-04-06T07:41:49.469Z,2.47
2023-04-06T07:42:52.602Z,2.03
2023-04-06T07:43:55.594Z,2.65
2023-04-06T07:44:58.200Z,2.95
2023-04-06T07:46:01.692Z,2.38
2023-04-06T07:47:04.408Z,2.75
2023-04-06T07:48:07.147Z,2.50
2023-04-06T07:49:10.434Z,2.30
2023-04-06T07:50:13.177Z,1.98
2023-04-06T07:51:17.481Z,2.60
2023-04-06T07:52:20.931Z,2.08
2023-04-06T07:53:25.094Z,2.30
2023-04-06T07:54:27.720Z,2.20
2023-04-06T07:55:30.330Z,2.35
2023-04-06T07:56:33.013Z,2.20
2023-04-06T07:57:36.070Z,2.58
2023-04-06T07:58:38.665Z,2.25
2023-04-06T07:59:41.307Z,1.88
2023-04-06T08:00:44.006Z,2.25
2023-04-06T08:01:46.567Z,2.28
2023-04-06T08:02:49.839Z,2.35
2023-04-06T08:03:52.836Z,2.20
2023-04-06T08:04:55.462Z,1.95
2023-04-06T08:05:58.049Z,2.20
2023-04-06T08:07:00.750Z,2.38
2023-04-06T08:08:03.926Z,2.30
2023-04-06T08:09:06.449Z,2.90
2023-04-06T08:10:09.539Z,2.40
2023-04-06T08:11:12.383Z,2.58
2023-04-06T08:12:15.450Z,2.33
2023-04-06T08:13:18.055Z,2.75
2023-04-06T08:14:21.088Z,2.58
2023-04-06T08:15:23.663Z,2.85
2023-04-06T08:16:26.298Z,2.25
2023-04-06T08:17:31.491Z,2.38
2023-04-06T08:18:34.270Z,2.80
2023-04-06T08:19:36.852Z,2.47
2023-04-06T08:20:40.227Z,2.38
2023-04-06T08:21:43.944Z,2.72
2023-04-06T08:22:46.741Z,2.63
2023-04-06T08:23:49.415Z,2.80
2023-04-06T08:24:52.243Z,2.50
2023-04-06T08:25:57.606Z,2.90
2023-04-06T08:27:00.292Z,2.60
2023-04-06T08:28:03.861Z,2.22
2023-04-06T08:29:08.498Z,3.17
2023-04-06T08:30:11.416Z,2.72
2023-04-06T08:31:14.292Z,2.55
2023-04-06T08:32:16.876Z,2.38
2023-04-06T08:33:19.641Z,2.75
2023-04-06T08:34:22.764Z,2.95
2023-04-06T08:35:25.414Z,2.25
2023-04-06T08:36:28.066Z,2.60
2023-04-06T08:37:31.035Z,2.40
2023-04-06T08:38:33.765Z,2.45
2023-04-06T08:39:36.364Z,2.83
2023-04-06T08:40:39.835Z,2.03
2023-04-06T08:41:46.023Z,2.97
2023-04-06T08:42:55.271Z,2.47
2023-04-06T08:44:02.490Z,2.58
2023-04-06T08:45:05.469Z,2.78
2023-04-06T08:46:11.135Z,2.67
2023-04-06T08:47:14.031Z,2.53
2023-04-06T08:48:17.234Z,2.90
2023-04-06T08:49:20.393Z,2.45
2023-04-06T08:50:23.177Z,2.50
2023-04-06T08:51:29.429Z,2.95
2023-04-06T08:52:33.986Z,2.10
2023-04-06T08:53:37.178Z,2.30
2023-04-06T08:54:39.866Z,2.47
2023-04-06T08:55:44.409Z,3.25
2023-04-06T08:56:47.522Z,2.50
2023-04-06T08:57:50.962Z,3.00
2023-04-06T08:58:55.912Z,2.65
2023-04-06T08:59:59.967Z,3.42
2023-04-06T09:01:04.274Z,2.47
2023-04-06T09:02:08.129Z,2.55
2023-04-06T09:03:13.854Z,2.28
2023-04-06T09:04:17.054Z,2.47
2023-04-06T09:05:20.219Z,2.53
2023-04-06T09:06:23.234Z,3.35
2023-04-06T09:07:26.041Z,2.97
2023-04-06T09:08:28.688Z,2.65
2023-04-06T09:09:31.328Z,2.78
2023-04-06T09:10:34.189Z,2.58
2023-04-06T09:11:48.407Z,2.78
2023-04-06T09:12:51.429Z,3.78
2023-04-06T09:13:56.091Z,2.63
2023-04-06T09:14:59.544Z,2.65
2023-04-06T09:16:05.048Z,2.55
2023-04-06T09:17:08.002Z,2.70
2023-04-06T09:18:10.669Z,2.17
2023-04-06T09:19:14.226Z,2.17
2023-04-06T09:20:29.285Z,2.28
2023-04-06T09:21:32.030Z,1.92
2023-04-06T09:22:41.416Z,2.20
2023-04-06T09:23:43.916Z,1.88
2023-04-06T09:24:51.803Z,2.53
2023-04-06T09:26:11.824Z,2.10
2023-04-06T09:27:15.634Z,2.40
2023-04-06T09:28:18.212Z,2.25
2023-04-06T09:29:28.180Z,2.55
2023-04-06T09:30:32.781Z,2.53
2023-04-06T09:31:35.408Z,2.17
2023-04-06T09:32:48.037Z,2.72
2023-04-06T09:33:51.178Z,2.50
2023-04-06T09:34:53.887Z,2.47
2023-04-06T09:35:56.646Z,2.28
2023-04-06T09:36:59.673Z,2.35
2023-04-06T09:38:12.312Z,2.30
2023-04-06T09:39:15.040Z,2.85
2023-04-06T09:40:20.556Z,1.80
2023-04-06T09:41:31.692Z,2.80
2023-04-06T09:42:35.833Z,2.28
2023-04-06T09:43:38.568Z,1.60
2023-04-06T09:44:41.099Z,2.20
2023-04-06T09:45:43.771Z,2.30
2023-04-06T09:46:59.699Z,2.08
2023-04-06T09:48:04.931Z,2.33
2023-04-06T09:49:09.130Z,1.80
2023-04-06T09:50:13.814Z,2.33
2023-04-06T09:51:17.732Z,1.88
2023-04-06T09:52:21.090Z,1.67
2023-04-06T09:53:27.234Z,2.20
2023-04-06T09:54:31.394Z,2.13
2023-04-06T09:55:38.096Z,2.50
2023-04-06T09:56:56.989Z,2.15
2023-04-06T09:58:07.378Z,2.25
2023-04-06T10:00:20.237Z,2.47
2023-04-06T10:01:24.614Z,2.45
2023-04-06T10:02:57.293Z,2.30
2023-04-06T10:04:29.758Z,2.33
2023-04-06T10:05:44.065Z,2.70
2023-04-06T10:06:52.955Z,2.58
2023-04-06T10:08:01.096Z,2.40
2023-04-06T10:09:06.061Z,2.85
2023-04-06T10:10:09.869Z,2.95
2023-04-06T10:11:12.844Z,2.58
2023-04-06T10:12:16.560Z,3.13
2023-04-06T10:13:20.322Z,2.67
2023-04-06T10:14:22.967Z,2.88
2023-04-06T10:15:25.759Z,2.55
2023-04-06T10:16:29.048Z,2.80
2023-04-06T10:17:31.661Z,2.60
2023-04-06T10:18:34.598Z,3.35
2023-04-06T10:19:56.776Z,2.60
2023-04-06T10:21:16.045Z,3.10
2023-04-06T10:22:26.625Z,2.70
2023-04-06T10:23:42.973Z,2.95
2023-04-06T10:24:45.715Z,3.38
2023-04-06T10:25:58.603Z,2.67
2023-04-06T10:27:04.766Z,2.97
2023-04-06T10:28:08.502Z,2.63
2023-04-06T10:29:11.385Z,3.15
2023-04-06T10:30:18.176Z,2.95
2023-04-06T10:31:28.455Z,2.60
2023-04-06T10:32:38.576Z,3.17
2023-04-06T10:33:41.837Z,3.03
2023-04-06T10:34:44.662Z,2.70
2023-04-06T10:35:47.721Z,3.00
2023-04-06T10:36:50.441Z,3.00
2023-04-06T10:38:01.584Z,3.03
2023-04-06T10:39:06.891Z,2.75
2023-04-06T10:40:23.347Z,2.88
2023-04-06T10:41:42.808Z,3.03
2023-04-06T10:42:45.511Z,3.15
2023-04-06T10:44:00.388Z,3.63
2023-04-06T10:45:02.854Z,2.92
2023-04-06T10:46:06.834Z,3.13
2023-04-06T10:47:18.283Z,2.85
2023-04-06T10:48:20.841Z,3.40
2023-04-06T10:49:25.221Z,3.40
2023-04-06T10:50:31.206Z,3.38
2023-04-06T10:51:33.993Z,3.42
2023-04-06T10:52:36.485Z,3.58
2023-04-06T10:53:39.369Z,3.10
2023-04-06T10:54:45.008Z,2.88
2023-04-06T10:55:48.451Z,3.75
2023-04-06T10:56:51.250Z,3.13
2023-04-06T10:57:53.764Z,3.47
2023-04-06T10:58:59.597Z,3.58
2023-04-06T11:00:02.331Z,3.50
2023-04-06T11:01:05.064Z,3.58
2023-04-06T11:02:07.827Z,3.70
2023-04-06T11:03:10.502Z,3.25
2023-04-06T11:04:20.966Z,3.95
2023-04-06T11:05:23.453Z,3.35
2023-04-06T11:06:32.203Z,3.60
2023-04-06T11:07:35.050Z,4.13
2023-04-06T11:08:38.898Z,3.63
2023-04-06T11:09:42.277Z,4.03
2023-04-06T11:10:44.960Z,4.20
2023-04-06T11:11:47.522Z,4.38
2023-04-06T11:12:55.865Z,4.78
2023-04-06T11:14:00.384Z,3.88
2023-04-06T11:15:07.466Z,3.88
2023-04-06T11:16:18.795Z,4.13
2023-04-06T11:17:27.969Z,3.38
2023-04-06T11:18:30.613Z,3.80
2023-04-06T11:19:33.228Z,3.33
2023-04-06T11:20:36.100Z,3.40
2023-04-06T11:21:44.426Z,3.85
2023-04-06T11:22:52.009Z,3.30
2023-04-06T11:24:14.735Z,4.03
2023-04-06T11:25:18.289Z,3.45
2023-04-06T11:26:21.430Z,3.17
2023-04-06T11:27:24.133Z,3.38
2023-04-06T11:28:26.769Z,3.55
2023-04-06T11:29:31.441Z,4.05
2023-04-06T11:30:34.286Z,3.97
2023-04-06T11:31:46.703Z,4.00
2023-04-06T11:32:49.374Z,3.72
2023-04-06T11:33:57.600Z,3.75
2023-04-06T11:35:00.744Z,3.45
2023-04-06T11:36:03.592Z,3.67
2023-04-06T11:37:09.835Z,3.72
2023-04-06T11:38:12.387Z,3.67
2023-04-06T11:39:20.651Z,3.38
2023-04-06T11:40:23.970Z,3.10
2023-04-06T11:41:27.486Z,4.25
2023-04-06T11:42:30.888Z,3.53
2023-04-06T11:43:33.660Z,3.55
2023-04-06T11:44:47.204Z,3.40
2023-04-06T11:45:50.219Z,3.78
2023-04-06T11:46:54.241Z,3.33
2023-04-06T11:48:00.228Z,2.90
2023-04-06T11:49:03.993Z,3.03
2023-04-06T11:50:11.201Z,3.25
2023-04-06T11:51:14.739Z,3.40
2023-04-06T11:52:21.160Z,4.18
2023-04-06T11:53:23.812Z,3.53
2023-04-06T11:54:38.725Z,4.00
2023-04-06T11:55:41.777Z,3.78
2023-04-06T11:56:47.555Z,3.70
2023-04-06T11:57:50.945Z,4.00
2023-04-06T11:58:58.141Z,3.78
2023-04-06T12:00:00.991Z,3.97
2023-04-06T12:01:06.350Z,4.25
2023-04-06T12:02:09.045Z,3.90
2023-04-06T12:03:12.234Z,3.65
2023-04-06T12:04:14.808Z,4.25
2023-04-06T12:05:17.613Z,4.05
2023-04-06T12:06:20.740Z,5.30
2023-04-06T12:07:23.293Z,4.35
2023-04-06T12:08:27.018Z,3.65
2023-04-06T12:09:31.189Z,4.35
2023-04-06T12:10:34.015Z,4.35
2023-04-06T12:11:36.473Z,3.88
2023-04-06T12:12:39.035Z,4.20
2023-04-06T12:13:41.785Z,4.32
2023-04-06T12:14:44.451Z,4.53
2023-04-06T12:15:47.078Z,4.07
2023-04-06T12:16:50.570Z,3.83
2023-04-06T12:17:53.454Z,3.78
2023-04-06T12:18:57.122Z,3.55
2023-04-06T12:20:05.253Z,3.40
2023-04-06T12:21:08.563Z,4.03
2023-04-06T12:22:11.126Z,4.28
2023-04-06T12:23:14.818Z,3.75
2023-04-06T12:24:17.437Z,3.90
2023-04-06T12:25:20.692Z,4.07
2023-04-06T12:26:23.338Z,4.20
2023-04-06T12:27:26.091Z,3.95
2023-04-06T12:28:28.775Z,3.60
2023-04-06T12:29:31.367Z,3.60
2023-04-06T12:30:36.366Z,3.38
2023-04-06T12:31:44.059Z,3.53
2023-04-06T12:32:49.651Z,3.78
2023-04-06T12:33:53.756Z,3.25
2023-04-06T12:34:56.379Z,4.03
2023-04-06T12:35:59.014Z,3.40
2023-04-06T12:37:01.598Z,3.30
2023-04-06T12:38:04.263Z,3.40
2023-04-06T12:39:07.216Z,3.63
2023-04-06T12:40:11.767Z,2.90
2023-04-06T12:41:14.864Z,3.22
2023-04-06T12:42:18.180Z,4.20
2023-04-06T12:43:20.858Z,3.05
2023-04-06T12:44:24.848Z,3.25
2023-04-06T12:45:28.946Z,3.28
2023-04-06T12:46:31.903Z,3.50
2023-04-06T12:47:34.731Z,3.10
2023-04-06T12:48:37.595Z,3.58
2023-04-06T12:49:40.096Z,3.78
2023-04-06T12:50:42.671Z,3.35
2023-04-06T12:51:45.553Z,3.63
2023-04-06T12:52:48.744Z,3.40
2023-04-06T12:53:51.467Z,3.30
2023-04-06T12:54:53.993Z,3.03
2023-04-06T12:55:57.344Z,3.33
2023-04-06T12:56:59.894Z,3.03
2023-04-06T12:58:02.670Z,2.90
2023-04-06T12:59:06.447Z,3.50
2023-04-06T13:00:10.090Z,3.45
2023-04-06T13:01:14.128Z,3.15
2023-04-06T13:02:16.961Z,3.22
2023-04-06T13:03:21.154Z,2.22
2023-04-06T13:04:24.633Z,2.38
2023-04-06T13:05:28.516Z,3.08
2023-04-06T13:06:32.353Z,2.63
2023-04-06T13:07:34.865Z,2.72
2023-04-06T13:08:39.345Z,2.72
2023-04-06T13:09:42.473Z,3.10
2023-04-06T13:10:49.430Z,3.47
2023-04-06T13:11:52.093Z,2.95
2023-04-06T13:12:54.774Z,2.30
2023-04-06T13:13:57.589Z,3.38
2023-04-06T13:15:01.089Z,2.67
2023-04-06T13:16:06.490Z,2.47
2023-04-06T13:17:09.588Z,2.88
2023-04-06T13:18:12.653Z,2.53
2023-04-06T13:19:15.855Z,3.10
2023-04-06T13:20:18.836Z,2.78
2023-04-06T13:21:21.959Z,2.53
2023-04-06T13:22:24.578Z,2.70
2023-04-06T13:23:27.807Z,3.28
2023-04-06T13:24:30.525Z,2.97
2023-04-06T13:25:33.792Z,2.67
2023-04-06T13:26:37.107Z,2.67
2023-04-06T13:27:39.606Z,2.80
2023-04-06T13:28:42.638Z,3.17
2023-04-06T13:29:45.522Z,2.65
2023-04-06T13:30:49.938Z,2.83
2023-04-06T13:31:52.682Z,2.97
2023-04-06T13:32:55.358Z,2.30
2023-04-06T13:33:57.995Z,2.83
2023-04-06T13:35:01.469Z,2.47
2023-04-06T13:36:04.323Z,2.88
2023-04-06T13:37:06.940Z,3.30
2023-04-06T13:38:09.549Z,2.58
2023-04-06T13:39:12.072Z,2.63
2023-04-06T13:40:14.663Z,2.97
2023-04-06T13:41:24.805Z,2.70
2023-04-06T13:42:31.633Z,2.63
2023-04-06T13:43:34.431Z,2.58
2023-04-06T13:44:37.007Z,2.92
2023-04-06T13:45:40.419Z,2.70
2023-04-06T13:46:44.358Z,2.75
2023-04-06T13:47:47.052Z,3.22
2023-04-06T13:48:49.712Z,2.97
2023-04-06T13:49:53.790Z,2.78
2023-04-06T13:50:56.508Z,3.20
2023-04-06T13:51:58.956Z,3.22
2023-04-06T13:53:01.563Z,3.00
2023-04-06T13:54:04.211Z,3.10
2023-04-06T13:55:07.195Z,2.67
2023-04-06T13:56:10.085Z,3.38
2023-04-06T13:57:13.153Z,3.30
2023-04-06T13:58:15.698Z,2.58
2023-04-06T13:59:18.320Z,2.67
2023-04-06T14:00:21.259Z,3.08
2023-04-06T14:01:23.923Z,2.80
2023-04-06T14:02:28.487Z,2.35
2023-04-06T14:03:31.767Z,3.20
2023-04-06T14:04:35.497Z,3.15
2023-04-06T14:05:38.022Z,2.80
2023-04-06T14:06:40.843Z,3.17
2023-04-06T14:07:43.443Z,3.25
2023-04-06T14:08:46.456Z,3.08
2023-04-06T14:09:48.957Z,3.45
2023-04-06T14:10:51.576Z,2.85
2023-04-06T14:11:54.263Z,3.55
2023-04-06T14:12:57.124Z,2.83
2023-04-06T14:14:00.299Z,2.65
2023-04-06T14:15:02.843Z,2.47
2023-04-06T14:16:05.992Z,2.75
2023-04-06T14:17:08.434Z,2.83
2023-04-06T14:18:10.896Z,3.20
2023-04-06T14:19:15.286Z,2.80
2023-04-06T14:20:17.846Z,3.38
2023-04-06T14:21:20.899Z,3.65
2023-04-06T14:22:23.370Z,3.28